Time;durP1;ratioP1;P1;durP2;ratioP2;P2;SDS_P1;SDS_P2;PMS_P1;PMS_P2;Temp;Humidity;BMP_temperature;BMP_pressure;BME280_temperature;BME280_humidity;BME280_pressure;Samples;Min_cycle;Max_cycle;Signal;HPM_P1;HPM_P2
2023/07/01 00:01:02;;;;;;;;;;;;;;;;;;7310894;19;142036;-83
2023/07/01 00:03:30;;;;;;;;;;;;;;;;;;7310994;19;141945;-86
2023/07/01 00:05:58;;;;;;;;;;;;;;;;;;7309298;19;147326;-85
2023/07/01 00:08:25;;;;;;;;;;;;;;;;;;7309975;19;152136;-85
2023/07/01 00:10:54;;;;;;;;;;;;;;;;;;7310281;19;143383;-85
2023/07/01 00:13:21;;;;;;;;;;;;;;;;;;7308985;19;141254;-85
2023/07/01 00:15:48;;;;;;;;;;;;;;;;;;7310514;19;150723;-87
2023/07/01 00:18:15;;;;;;;;;;;;;;;;;;7308981;19;144710;-86
2023/07/01 00:20:42;;;;;;;;;;;;;;;;;;7309310;19;144500;-87
2023/07/01 00:23:12;;;;;;;;;;;;;;;;;;7311647;19;140588;-86
2023/07/01 00:25:39;;;;;;;;;;;;;;;;;;7310000;19;150069;-85
2023/07/01 00:28:07;;;;;;;;;;;;;;;;;;7308498;19;141003;-89
2023/07/01 00:30:34;;;;;;;;;;;;;;;;;;7311900;19;142426;-89
2023/07/01 00:33:02;;;;;;;;;;;;;;;;;;7312274;19;140706;-90
2023/07/01 00:35:29;;;;;;;;;;;;;;;;;;7315178;19;150386;-92
2023/07/01 00:37:56;;;;;;;;;;;;;;;;;;7314577;19;150782;-92
2023/07/01 00:40:23;;;;;;;;;;;;;;;;;;7315239;19;143277;-89
2023/07/01 00:42:50;;;;;;;;;;;;;;;;;;7312668;19;141736;-90
2023/07/01 00:45:21;;;;;;;;;;;;;;;;;;7311331;19;147899;-90
2023/07/01 00:47:48;;;;;;;;;;;;;;;;;;7312424;19;149201;-89
2023/07/01 00:50:16;;;;;;;;;;;;;;;;;;7310644;19;143431;-90
2023/07/01 00:52:43;;;;;;;;;;;;;;;;;;7311025;19;140395;-89
2023/07/01 00:55:10;;;;;;;;;;;;;;;;;;7310674;19;140694;-89
2023/07/01 00:57:37;;;;;;;;;;;;;;;;;;7309515;19;148977;-86
2023/07/01 01:00:09;;;;;;;;;;;;;;;;;;7309032;19;142188;-89
2023/07/01 01:02:39;;;;;;;;;;;;;;;;;;7310402;19;143143;-89
2023/07/01 01:05:12;;;;;;;;;;;;;;;;;;7308580;19;147765;-90
2023/07/01 01:08:00;;;;;;;;;;;;;;;;;;7311046;19;149772;-90
2023/07/01 01:10:27;;;;;;;;;;;;;;;;;;7309711;19;140443;-89
2023/07/01 01:12:56;;;;;;;;;;;;;;;;;;7309652;19;140486;-90
2023/07/01 01:15:24;;;;;;;;;;;;;;;;;;7308868;19;144354;-88
2023/07/01 01:17:55;;;;;;;;;;;;;;;;;;7311756;19;141527;-94
2023/07/01 01:20:23;;;;;;;;;;;;;;;;;;7309661;19;140233;-90
2023/07/01 01:23:05;;;;;;;;;;;;;;;;;;7311355;19;141770;-92
2023/07/01 01:25:51;;;;;;;;;;;;;;;;;;7310170;19;140618;-93
2023/07/01 01:28:19;;;;;;;;;;;;;;;;;;7308000;19;147986;-93
2023/07/01 01:30:47;;;;;;;;;;;;;;;;;;7308070;19;144554;-89
2023/07/01 01:33:15;;;;;;;;;;;;;;;;;;7309651;19;140500;-92
2023/07/01 01:35:42;;;;;;;;;;;;;;;;;;7308706;19;140830;-87
2023/07/01 01:38:18;;;;;;;;;;;;;;;;;;7307366;19;140763;-88
2023/07/01 01:40:47;;;;;;;;;;;;;;;;;;7309421;19;140522;-88
2023/07/01 01:43:26;;;;;;;;;;;;;;;;;;7306259;19;142795;-87
2023/07/01 01:45:54;;;;;;;;;;;;;;;;;;7307720;19;148066;-87
2023/07/01 01:48:21;;;;;;;;;;;;;;;;;;7306429;19;151271;-87
2023/07/01 01:50:49;;;;;;;;;;;;;;;;;;7309530;19;140958;-96
2023/07/01 01:53:17;;;;;;;;;;;;;;;;;;7311053;19;140469;-96
2023/07/01 01:55:45;;;;;;;;;;;;;;;;;;7312895;19;140159;-96
2023/07/01 01:58:12;;;;;;;;;;;;;;;;;;7311765;19;148748;-96
2023/07/01 02:00:39;;;;;;;;;;;;;;;;;;7312313;19;141923;-96
2023/07/01 02:03:06;;;;;;;;;;;;;;;;;;7310931;19;142696;-96
2023/07/01 02:05:33;;;;;;;;;;;;;;;;;;7310752;19;151277;-96
2023/07/01 02:08:02;;;;;;;;;;;;;;;;;;7310288;19;140611;-88
2023/07/01 02:10:29;;;;;;;;;;;;;;;;;;7309330;19;141808;-94
2023/07/01 02:12:56;;;;;;;;;;;;;;;;;;7309113;19;140875;-88
2023/07/01 02:15:23;;;;;;;;;;;;;;;;;;7305435;19;146135;-84
2023/07/01 02:17:50;;;;;;;;;;;;;;;;;;7307177;19;150220;-92
2023/07/01 02:20:19;;;;;;;;;;;;;;;;;;7311419;19;145014;-94
2023/07/01 02:22:50;;;;;;;;;;;;;;;;;;7310704;19;140958;-89
2023/07/01 02:25:17;;;;;;;;;;;;;;;;;;7307672;19;140595;-91
2023/07/01 02:27:44;;;;;;;;;;;;;;;;;;7310196;19;140571;-92
2023/07/01 02:30:12;;;;;;;;;;;;;;;;;;7311122;19;141805;-93
2023/07/01 02:32:41;;;;;;;;;;;;;;;;;;7308944;19;140575;-94
2023/07/01 02:35:08;;;;;;;;;;;;;;;;;;7306705;19;148482;-82
2023/07/01 02:37:35;;;;;;;;;;;;;;;;;;7304338;19;151563;-83
2023/07/01 02:40:04;;;;;;;;;;;;;;;;;;7305160;19;143882;-87
2023/07/01 02:42:31;;;;;;;;;;;;;;;;;;7305561;19;140407;-86
2023/07/01 02:44:58;;;;;;;;;;;;;;;;;;7304677;19;140989;-86
2023/07/01 02:47:28;;;;;;;;;;;;;;;;;;7304393;19;150010;-87
2023/07/01 02:49:55;;;;;;;;;;;;;;;;;;7305347;19;141667;-87
2023/07/01 02:52:23;;;;;;;;;;;;;;;;;;7305212;19;140512;-87
2023/07/01 02:54:50;;;;;;;;;;;;;;;;;;7305913;19;152159;-87
2023/07/01 02:57:18;;;;;;;;;;;;;;;;;;7304965;19;145361;-86
2023/07/01 02:59:46;;;;;;;;;;;;;;;;;;7306271;19;140395;-87
2023/07/01 03:02:13;;;;;;;;;;;;;;;;;;7305905;19;140519;-86
2023/07/01 03:04:40;;;;;;;;;;;;;;;;;;7304679;19;149422;-87
2023/07/01 03:07:07;;;;;;;;;;;;;;;;;;7304890;19;147982;-86
2023/07/01 03:09:35;;;;;;;;;;;;;;;;;;7305040;19;142621;-91
2023/07/01 03:12:02;;;;;;;;;;;;;;;;;;7310121;19;140529;-92
2023/07/01 03:14:29;;;;;;;;;;;;;;;;;;7308982;19;147132;-86
2023/07/01 03:16:57;;;;;;;;;;;;;;;;;;7304049;19;141043;-88
2023/07/01 03:19:24;;;;;;;;;;;;;;;;;;7305340;19;140550;-88
2023/07/01 03:21:51;;;;;;;;;;;;;;;;;;7304535;19;140785;-87
2023/07/01 03:24:18;;;;;;;;;;;;;;;;;;7303984;19;149290;-88
2023/07/01 03:26:45;;;;;;;;;;;;;;;;;;7303856;19;151669;-86
2023/07/01 03:29:12;;;;;;;;;;;;;;;;;;7304851;19;143448;-88
2023/07/01 03:31:40;;;;;;;;;;;;;;;;;;7305265;19;140409;-89
2023/07/01 03:34:07;;;;;;;;;;;;;;;;;;7304984;19;145181;-87
2023/07/01 03:36:35;;;;;;;;;;;;;;;;;;7303792;19;147989;-88
2023/07/01 03:39:03;;;;;;;;;;;;;;;;;;7303995;19;141107;-89
2023/07/01 03:41:31;;;;;;;;;;;;;;;;;;7305496;19;144779;-88
2023/07/01 03:43:58;;;;;;;;;;;;;;;;;;7310112;19;149033;-89
2023/07/01 03:46:25;;;;;;;;;;;;;;;;;;7309911;19;150971;-87
2023/07/01 03:48:52;;;;;;;;;;;;;;;;;;7311922;19;145431;-90
2023/07/01 03:51:19;;;;;;;;;;;;;;;;;;7307302;19;141022;-89
2023/07/01 03:53:46;;;;;;;;;;;;;;;;;;7305072;19;140422;-89
2023/07/01 03:56:13;;;;;;;;;;;;;;;;;;7305032;19;150596;-88
2023/07/01 03:58:40;;;;;;;;;;;;;;;;;;7303276;19;140719;-87
2023/07/01 04:01:07;;;;;;;;;;;;;;;;;;7304808;19;140270;-88
2023/07/01 04:03:34;;;;;;;;;;;;;;;;;;7304007;19;150928;-87
2023/07/01 04:06:02;;;;;;;;;;;;;;;;;;7303380;19;142955;-87
2023/07/01 04:08:30;;;;;;;;;;;;;;;;;;7304564;19;141138;-86
2023/07/01 04:10:57;;;;;;;;;;;;;;;;;;7303986;19;140560;-87
2023/07/01 04:13:27;;;;;;;;;;;;;;;;;;7302777;19;140798;-88
2023/07/01 04:15:54;;;;;;;;;;;;;;;;;;7303428;19;151127;-87
2023/07/01 04:18:21;;;;;;;;;;;;;;;;;;7303791;19;143515;-87
2023/07/01 04:20:49;;;;;;;;;;;;;;;;;;7305903;19;140367;-88
2023/07/01 04:23:16;;;;;;;;;;;;;;;;;;7310850;19;140901;-89
2023/07/01 04:25:43;;;;;;;;;;;;;;;;;;7310708;19;143415;-89
2023/07/01 04:28:10;;;;;;;;;;;;;;;;;;7312146;19;140990;-90
2023/07/01 04:30:37;;;;;;;;;;;;;;;;;;7311995;19;140439;-88
2023/07/01 04:33:04;;;;;;;;;;;;;;;;;;7309603;19;142598;-88
2023/07/01 04:35:33;;;;;;;;;;;;;;;;;;7310311;19;151368;-87
2023/07/01 04:38:01;;;;;;;;;;;;;;;;;;7309987;19;143518;-89
2023/07/01 04:40:28;;;;;;;;;;;;;;;;;;7311205;19;141753;-89
2023/07/01 04:42:55;;;;;;;;;;;;;;;;;;7312814;19;142876;-89
2023/07/01 04:45:22;;;;;;;;;;;;;;;;;;7310851;19;148478;-87
2023/07/01 04:47:49;;;;;;;;;;;;;;;;;;7311453;19;140659;-85
2023/07/01 04:50:16;;;;;;;;;;;;;;;;;;7309568;19;141012;-86
2023/07/01 04:52:43;;;;;;;;;;;;;;;;;;7307484;19;151325;-86
2023/07/01 04:55:11;;;;;;;;;;;;;;;;;;7309776;19;140748;-85
2023/07/01 04:57:38;;;;;;;;;;;;;;;;;;7308779;19;140464;-86
2023/07/01 05:00:09;;;;;;;;;;;;;;;;;;7310088;19;140862;-86
2023/07/01 05:02:36;;;;;;;;;;;;;;;;;;7309046;19;140754;-86
2023/07/01 05:05:04;;;;;;;;;;;;;;;;;;7309115;19;145395;-86
2023/07/01 05:07:32;;;;;;;;;;;;;;;;;;7308106;19;140530;-88
2023/07/01 05:09:59;;;;;;;;;;;;;;;;;;7308255;19;140936;-86
2023/07/01 05:12:26;;;;;;;;;;;;;;;;;;7307817;19;144958;-85
2023/07/01 05:14:54;;;;;;;;;;;;;;;;;;7308028;19;141304;-85
2023/07/01 05:17:21;;;;;;;;;;;;;;;;;;7309464;19;141694;-85
2023/07/01 05:19:48;;;;;;;;;;;;;;;;;;7308139;19;144847;-82
2023/07/01 05:22:15;;;;;;;;;;;;;;;;;;7307825;19;143896;-84
2023/07/01 05:24:42;;;;;;;;;;;;;;;;;;7308678;19;148780;-83
2023/07/01 05:27:09;;;;;;;;;;;;;;;;;;7307584;19;141700;-83
2023/07/01 05:29:37;;;;;;;;;;;;;;;;;;7306800;19;143498;-83
2023/07/01 05:32:04;;;;;;;;;;;;;;;;;;7307011;19;151498;-83
2023/07/01 05:34:31;;;;;;;;;;;;;;;;;;7307980;19;142442;-84
2023/07/01 05:36:58;;;;;;;;;;;;;;;;;;7305866;19;144834;-84
2023/07/01 05:39:25;;;;;;;;;;;;;;;;;;7308561;19;141618;-86
2023/07/01 05:41:52;;;;;;;;;;;;;;;;;;7307501;19;140676;-81
2023/07/01 05:44:19;;;;;;;;;;;;;;;;;;7306809;19;150204;-86
2023/07/01 05:46:46;;;;;;;;;;;;;;;;;;7306088;19;143369;-85
2023/07/01 05:49:14;;;;;;;;;;;;;;;;;;7308483;19;140354;-89
2023/07/01 05:51:41;;;;;;;;;;;;;;;;;;7308190;19;151685;-88
2023/07/01 05:54:08;;;;;;;;;;;;;;;;;;7309373;19;146330;-86
2023/07/01 05:56:35;;;;;;;;;;;;;;;;;;7307715;19;143863;-86
2023/07/01 05:59:02;;;;;;;;;;;;;;;;;;7307701;19;140357;-86
2023/07/01 06:01:29;;;;;;;;;;;;;;;;;;7307781;19;141762;-87
2023/07/01 06:03:57;;;;;;;;;;;;;;;;;;7308239;19;141083;-87
2023/07/01 06:06:24;;;;;;;;;;;;;;;;;;7305898;19;140583;-88
2023/07/01 06:08:51;;;;;;;;;;;;;;;;;;7305349;19;144264;-87
2023/07/01 06:11:18;;;;;;;;;;;;;;;;;;7306529;19;149093;-88
2023/07/01 06:13:47;;;;;;;;;;;;;;;;;;7306291;19;148280;-80
2023/07/01 06:16:15;;;;;;;;;;;;;;;;;;7306623;19;140711;-80
2023/07/01 06:18:42;;;;;;;;;;;;;;;;;;7306969;19;140552;-82
2023/07/01 06:21:09;;;;;;;;;;;;;;;;;;7306218;19;140961;-77
2023/07/01 06:23:37;;;;;;;;;;;;;;;;;;7304927;19;145751;-77
2023/07/01 06:26:04;;;;;;;;;;;;;;;;;;7305795;19;142321;-77
2023/07/01 06:28:31;;;;;;;;;;;;;;;;;;7304261;19;141490;-76
2023/07/01 06:30:58;;;;;;;;;;;;;;;;;;7305852;19;149531;-76
2023/07/01 06:33:26;;;;;;;;;;;;;;;;;;7304552;19;148751;-81
2023/07/01 06:35:55;;;;;;;;;;;;;;;;;;7305563;19;140527;-84
2023/07/01 06:38:24;;;;;;;;;;;;;;;;;;7305164;19;140697;-85
2023/07/01 06:40:53;;;;;;;;;;;;;;;;;;7304686;19;140824;-87
2023/07/01 06:44:26;;;;;;;;;;;;;;;;;;7344941;19;140526;-80
2023/07/01 06:46:53;;;;;;;;;;;;;;;;;;7339919;19;142747;-84
2023/07/01 06:49:20;;;;;;;;;;;;;;;;;;7340901;19;140721;-85
2023/07/01 06:51:47;;;;;;;;;;;;;;;;;;7339025;19;142987;-81
2023/07/01 06:54:14;;;;;;;;;;;;;;;;;;7341067;19;140766;-87
2023/07/01 06:56:42;;;;;;;;;;;;;;;;;;7340251;19;140336;-88
2023/07/01 06:59:09;;;;;;;;;;;;;;;;;;7340144;19;140758;-89
2023/07/01 07:01:36;;;;;;;;;;;;;;;;;;7338951;19;149319;-85
2023/07/01 07:04:03;;;;;;;;;;;;;;;;;;7340147;19;141143;-88
2023/07/01 07:06:30;;;;;;;;;;;;;;;;;;7338778;19;140719;-86
2023/07/01 07:08:58;;;;;;;;;;;;;;;;;;7339038;19;142561;-88
2023/07/01 07:11:25;;;;;;;;;;;;;;;;;;7337445;19;151451;-87
2023/07/01 07:13:53;;;;;;;;;;;;;;;;;;7340543;19;140657;-88
2023/07/01 07:16:20;;;;;;;;;;;;;;;;;;7338726;19;140918;-82
2023/07/01 07:18:50;;;;;;;;;;;;;;;;;;7337489;19;144866;-83
2023/07/01 07:21:17;;;;;;;;;;;;;;;;;;7338106;19;142081;-84
2023/07/01 07:23:44;;;;;;;;;;;;;;;;;;7337116;19;141275;-83
2023/07/01 07:26:13;;;;;;;;;;;;;;;;;;7338806;19;140700;-81
2023/07/01 07:28:40;;;;;;;;;;;;;;;;;;7338578;19;153137;-81
2023/07/01 07:31:08;;;;;;;;;;;;;;;;;;7338779;19;140826;-80
2023/07/01 07:33:35;;;;;;;;;;;;;;;;;;7338055;19;140558;-81
2023/07/01 07:36:03;;;;;;;;;;;;;;;;;;7338589;19;140869;-90
2023/07/01 07:38:30;;;;;;;;;;;;;;;;;;7337519;19;140500;-86
2023/07/01 07:41:00;;;;;;;;;;;;;;;;;;7338543;19;146425;-84
2023/07/01 07:43:27;;;;;;;;;;;;;;;;;;7337769;19;141365;-88
2023/07/01 07:45:58;;;;;;;;;;;;;;;;;;7337429;19;140639;-80
2023/07/01 07:50:05;;;;;;;;;;;;;;;;;;7345747;19;140702;-85
2023/07/01 07:52:33;;;;;;;;;;;;;;;;;;7341992;19;140526;-86
2023/07/01 07:55:00;;;;;;;;;;;;;;;;;;7341145;19;140564;-89
2023/07/01 07:57:27;;;;;;;;;;;;;;;;;;7341060;19;140711;-90
2023/07/01 07:59:55;;;;;;;;;;;;;;;;;;7342516;19;140751;-90
2023/07/01 08:02:22;;;;;;;;;;;;;;;;;;7341619;19;140163;-83
2023/07/01 08:04:49;;;;;;;;;;;;;;;;;;7338897;19;148447;-78
2023/07/01 08:07:25;;;;;;;;;;;;;;;;;;7339157;19;149542;-84
2023/07/01 08:09:52;;;;;;;;;;;;;;;;;;7341789;19;140504;-79
2023/07/01 08:12:19;;;;;;;;;;;;;;;;;;7341212;19;140395;-82
2023/07/01 08:14:47;;;;;;;;;;;;;;;;;;7339589;19;142622;-86
2023/07/01 08:17:13;;;;;;;;;;;;;;;;;;7338891;19;149897;-86
2023/07/01 08:19:40;;;;;;;;;;;;;;;;;;7341492;19;143677;-86
2023/07/01 08:22:08;;;;;;;;;;;;;;;;;;7341388;19;140475;-86
2023/07/01 08:24:35;;;;;;;;;;;;;;;;;;7339575;19;140736;-83
2023/07/01 08:27:05;;;;;;;;;;;;;;;;;;7340541;19;148654;-81
2023/07/01 08:29:32;;;;;;;;;;;;;;;;;;7340294;19;140859;-85
2023/07/01 08:31:59;;;;;;;;;;;;;;;;;;7340617;19;140727;-80
2023/07/01 08:34:27;;;;;;;;;;;;;;;;;;7339721;19;140488;-79
2023/07/01 08:36:54;;;;;;;;;;;;;;;;;;7340368;19;152687;-78
2023/07/01 08:39:21;;;;;;;;;;;;;;;;;;7340151;19;140598;-81
2023/07/01 08:41:51;;;;;;;;;;;;;;;;;;7341438;19;140759;-79
2023/07/01 08:44:19;;;;;;;;;;;;;;;;;;7339989;19;141137;-83
2023/07/01 08:46:55;;;;;;;;;;;;;;;;;;7338972;19;149862;-84
2023/07/01 08:49:22;;;;;;;;;;;;;;;;;;7338409;19;142799;-85
2023/07/01 08:52:03;;;;;;;;;;;;;;;;;;7337488;19;140643;-86
2023/07/01 08:54:33;;;;;;;;;;;;;;;;;;7339349;19;140675;-85
2023/07/01 08:57:00;;;;;;;;;;;;;;;;;;7336241;19;150425;-85
2023/07/01 08:59:28;;;;;;;;;;;;;;;;;;7333091;19;144341;-86
2023/07/01 09:01:56;;;;;;;;;;;;;;;;;;7309958;19;140336;-87
2023/07/01 09:04:23;;;;;;;;;;;;;;;;;;7310215;19;152776;-86
2023/07/01 09:22:18;;;;;;;;;;;;;;;;;;7304779;19;140455;-83
2023/07/01 09:24:46;;;;;;;;;;;;;;;;;;7308065;19;140839;-83
2023/07/01 09:27:13;;;;;;;;;;;;;;;;;;7310237;19;140840;-83
2023/07/01 09:29:40;;;;;;;;;;;;;;;;;;7307717;19;148540;-84
2023/07/01 09:41:17;;;;;;;;;;;;;;;;;;7309803;19;143500;-84
2023/07/01 09:43:44;;;;;;;;;;;;;;;;;;7311104;19;140595;-83
2023/07/01 09:46:12;;;;;;;;;;;;;;;;;;7309931;19;141924;-85
2023/07/01 09:48:48;;;;;;;;;;;;;;;;;;7310358;19;150429;-86
2023/07/01 09:54:29;;;;;;;;;;;;;;;;;;7301604;19;140464;-87
2023/07/01 09:56:58;;;;;;;;;;;;;;;;;;7310843;19;140419;-88
2023/07/01 09:59:26;;;;;;;;;;;;;;;;;;7309630;19;140983;-88
2023/07/01 10:02:01;;;;;;;;;;;;;;;;;;7266651;19;142856;-78
2023/07/01 10:04:42;;;;;;;;;;;;;;;;;;7307179;19;140567;-79
2023/07/01 10:07:16;;;;;;;;;;;;;;;;;;7313310;19;140559;-87
2023/07/01 10:09:51;;;;;;;;;;;;;;;;;;7314164;19;140183;-81
2023/07/01 10:12:25;;;;;;;;;;;;;;;;;;7309315;19;140661;-78
2023/07/01 10:14:59;;;;;;;;;;;;;;;;;;7311080;19;141118;-77
2023/07/01 10:17:48;;;;;;;;;;;;;;;;;;7312856;19;140657;-78
2023/07/01 10:20:29;;;;;;;;;;;;;;;;;;7311653;19;140414;-78
2023/07/01 10:23:03;;;;;;;;;;;;;;;;;;7310948;19;140651;-78
2023/07/01 10:25:38;;;;;;;;;;;;;;;;;;7311390;19;140554;-85
2023/07/01 10:28:13;;;;;;;;;;;;;;;;;;7313061;19;140474;-81
2023/07/01 10:30:46;;;;;;;;;;;;;;;;;;7306561;19;140667;-75
2023/07/01 10:33:44;;;;;;;;;;;;;;;;;;7313534;19;140290;-79
2023/07/01 10:36:17;;;;;;;;;;;;;;;;;;7308855;19;140684;-84
2023/07/01 10:38:52;;;;;;;;;;;;;;;;;;7312205;19;140736;-85
2023/07/01 10:41:48;;;;;;;;;;;;;;;;;;7311046;19;140635;-82
2023/07/01 10:44:36;;;;;;;;;;;;;;;;;;7311015;19;140922;-81
2023/07/01 10:47:16;;;;;;;;;;;;;;;;;;7311891;19;140669;-81
2023/07/01 10:50:10;;;;;;;;;;;;;;;;;;7309450;19;140791;-78
2023/07/01 10:52:56;;;;;;;;;;;;;;;;;;7310875;19;140585;-80
2023/07/01 10:55:49;;;;;;;;;;;;;;;;;;7308348;19;141487;-81
2023/07/01 10:58:26;;;;;;;;;;;;;;;;;;7304381;19;142153;-80
2023/07/01 11:01:03;;;;;;;;;;;;;;;;;;7309362;19;140532;-81
2023/07/01 11:03:37;;;;;;;;;;;;;;;;;;7311476;19;140580;-91
2023/07/01 11:06:11;;;;;;;;;;;;;;;;;;7311202;19;140963;-85
2023/07/01 11:08:48;;;;;;;;;;;;;;;;;;7311213;19;140492;-87
2023/07/01 11:11:27;;;;;;;;;;;;;;;;;;7310147;19;140260;-83
2023/07/01 11:14:02;;;;;;;;;;;;;;;;;;7309391;19;140672;-86
2023/07/01 11:16:37;;;;;;;;;;;;;;;;;;7310970;19;140492;-80
2023/07/01 11:19:14;;;;;;;;;;;;;;;;;;7308531;19;140077;-81
2023/07/01 11:24:47;;;;;;;;;;;;;;;;;;7308511;19;140410;-85
2023/07/01 11:27:44;;;;;;;;;;;;;;;;;;7309553;19;140943;-80
2023/07/01 11:30:27;;;;;;;;;;;;;;;;;;7305534;19;142948;-80
2023/07/01 11:32:54;;;;;;;;;;;;;;;;;;7308815;19;145329;-83
2023/07/01 11:35:22;;;;;;;;;;;;;;;;;;7316351;19;140653;-92
2023/07/01 11:40:54;;;;;;;;;;;;;;;;;;7252760;19;142584;-92
2023/07/01 11:43:27;;;;;;;;;;;;;;;;;;7315462;19;142104;-91
2023/07/01 12:15:28;;;;;;;;;;;;;;;;;;7296504;19;140455;-81
2023/07/01 12:18:26;;;;;;;;;;;;;;;;;;7303761;19;140906;-78
2023/07/01 12:20:56;;;;;;;;;;;;;;;;;;7304949;19;140467;-75
2023/07/01 12:23:30;;;;;;;;;;;;;;;;;;7303063;19;141469;-76
2023/07/01 12:25:57;;;;;;;;;;;;;;;;;;7302402;19;152370;-75
2023/07/01 12:28:25;;;;;;;;;;;;;;;;;;7302981;19;140568;-74
2023/07/01 12:30:52;;;;;;;;;;;;;;;;;;7302938;19;142626;-75
2023/07/01 12:33:20;;;;;;;;;;;;;;;;;;7300478;19;150060;-74
2023/07/01 12:35:57;;;;;;;;;;;;;;;;;;;;;
2023/07/01 12:38:40;;;;;;;;;;;;;;;;;;7308350;19;140924;-75
2023/07/01 12:41:08;;;;;;;;;;;;;;;;;;7308818;19;141137;-75
2023/07/01 12:43:35;;;;;;;;;;;;;;;;;;7309646;19;140848;-74
2023/07/01 12:46:03;;;;;;;;;;;;;;;;;;7306614;19;140981;-76
2023/07/01 12:48:42;;;;;;;;;;;;;;;;;;7309583;19;141175;-74
2023/07/01 12:51:09;;;;;;;;;;;;;;;;;;7310738;19;140900;-76
2023/07/01 12:53:36;;;;;;;;;;;;;;;;;;7309388;19;140417;-76
2023/07/01 12:56:04;;;;;;;;;;;;;;;;;;7309482;19;143065;-74
2023/07/01 12:58:30;;;;;;;;;;;;;;;;;;7306987;19;145274;-77
2023/07/01 13:00:58;;;;;;;;;;;;;;;;;;7308790;19;143575;-76
2023/07/01 13:03:36;;;;;;;;;;;;;;;;;;7307525;19;140737;-75
2023/07/01 13:06:10;;;;;;;;;;;;;;;;;;7309784;19;140566;-75
2023/07/01 13:08:38;;;;;;;;;;;;;;;;;;7304208;19;140583;-76
2023/07/01 13:11:05;;;;;;;;;;;;;;;;;;7307062;19;140471;-74
2023/07/01 13:13:34;;;;;;;;;;;;;;;;;;7307848;19;146283;-76
2023/07/01 13:16:01;;;;;;;;;;;;;;;;;;7309661;19;145913;-75
2023/07/01 13:18:28;;;;;;;;;;;;;;;;;;7309140;19;140503;-78
2023/07/01 13:20:56;;;;;;;;;;;;;;;;;;7308535;19;142967;-75
2023/07/01 13:23:27;;;;;;;;;;;;;;;;;;7306209;19;148768;-76
2023/07/01 13:25:55;;;;;;;;;;;;;;;;;;7306289;19;142012;-77
2023/07/01 13:28:23;;;;;;;;;;;;;;;;;;7308576;19;143508;-77
2023/07/01 13:30:50;;;;;;;;;;;;;;;;;;7309799;19;140361;-78
2023/07/01 13:33:23;;;;;;;;;;;;;;;;;;7308479;19;145428;-76
2023/07/01 13:35:53;;;;;;;;;;;;;;;;;;7308417;19;140864;-77
2023/07/01 13:41:30;;;;;;;;;;;;;;;;;;7309216;19;140413;-82
2023/07/01 13:44:10;;;;;;;;;;;;;;;;;;7309903;19;149915;-81
2023/07/01 13:46:41;;;;;;;;;;;;;;;;;;7307485;19;140941;-78
2023/07/01 13:49:16;;;;;;;;;;;;;;;;;;7307623;19;140653;-81
2023/07/01 13:51:47;;;;;;;;;;;;;;;;;;7307767;19;140627;-82
2023/07/01 13:54:18;;;;;;;;;;;;;;;;;;7306907;19;145187;-83
2023/07/01 13:56:58;;;;;;;;;;;;;;;;;;7305187;19;150566;-84
2023/07/01 13:59:27;;;;;;;;;;;;;;;;;;7307027;19;140637;-83
2023/07/01 14:01:59;;;;;;;;;;;;;;;;;;7309181;19;140637;-84
2023/07/01 14:04:27;;;;;;;;;;;;;;;;;;7308584;19;140957;-83
2023/07/01 14:07:01;;;;;;;;;;;;;;;;;;7308885;19;141095;-82
2023/07/01 14:09:29;;;;;;;;;;;;;;;;;;7307523;19;140582;-82
2023/07/01 14:11:57;;;;;;;;;;;;;;;;;;7309279;19;140727;-83
2023/07/01 14:14:47;;;;;;;;;;;;;;;;;;7307266;19;150682;-87
2023/07/01 14:17:17;;;;;;;;;;;;;;;;;;7309217;19;152560;-88
2023/07/01 14:20:00;;;;;;;;;;;;;;;;;;7308884;19;140519;-90
2023/07/01 14:23:10;;;;;;;;;;;;;;;;;;7309098;19;140686;-92
2023/07/01 14:25:58;;;;;;;;;;;;;;;;;;7307714;19;142211;-88
2023/07/01 14:28:26;;;;;;;;;;;;;;;;;;7308359;19;140770;-87
2023/07/01 14:31:03;;;;;;;;;;;;;;;;;;7308150;19;140900;-87
2023/07/01 14:33:41;;;;;;;;;;;;;;;;;;7307930;19;140137;-87
2023/07/01 14:36:17;;;;;;;;;;;;;;;;;;7308791;19;140636;-88
2023/07/01 14:38:45;;;;;;;;;;;;;;;;;;7310925;19;140782;-88
2023/07/01 14:41:23;;;;;;;;;;;;;;;;;;7307973;19;143734;-84
2023/07/01 14:43:52;;;;;;;;;;;;;;;;;;7309698;19;140652;-83
2023/07/01 14:46:22;;;;;;;;;;;;;;;;;;7308489;19;149801;-83
2023/07/01 14:48:50;;;;;;;;;;;;;;;;;;7308460;19;142614;-83
2023/07/01 14:54:36;;;;;;;;;;;;;;;;;;7308584;19;140432;-78
2023/07/01 14:57:04;;;;;;;;;;;;;;;;;;7304938;19;149137;-79
2023/07/01 14:59:31;;;;;;;;;;;;;;;;;;7305223;19;140601;-77
2023/07/01 15:01:59;;;;;;;;;;;;;;;;;;7306005;19;140678;-77
2023/07/01 15:04:26;;;;;;;;;;;;;;;;;;7303276;19;142361;-77
2023/07/01 15:06:55;;;;;;;;;;;;;;;;;;7305776;19;141427;-75
2023/07/01 15:09:22;;;;;;;;;;;;;;;;;;7305675;19;142878;-77
2023/07/01 15:11:49;;;;;;;;;;;;;;;;;;7305712;19;141042;-77
2023/07/01 15:14:26;;;;;;;;;;;;;;;;;;7304556;19;140648;-77
2023/07/01 15:16:55;;;;;;;;;;;;;;;;;;7305863;19;141436;-77
2023/07/01 15:19:22;;;;;;;;;;;;;;;;;;7304969;19;143979;-77
2023/07/01 15:21:49;;;;;;;;;;;;;;;;;;7304092;19;140690;-77
2023/07/01 15:24:16;;;;;;;;;;;;;;;;;;7305854;19;140376;-78
2023/07/01 15:26:44;;;;;;;;;;;;;;;;;;7304159;19;141020;-76
2023/07/01 15:29:11;;;;;;;;;;;;;;;;;;7305567;19;140893;-77
2023/07/01 15:31:38;;;;;;;;;;;;;;;;;;7304466;19;142080;-77
2023/07/01 15:34:05;;;;;;;;;;;;;;;;;;7305550;19;140621;-76
2023/07/01 15:36:32;;;;;;;;;;;;;;;;;;7302628;19;149148;-79
2023/07/01 15:39:03;;;;;;;;;;;;;;;;;;7303889;19;149708;-77
2023/07/01 15:41:31;;;;;;;;;;;;;;;;;;7303742;19;140557;-77
2023/07/01 15:44:13;;;;;;;;;;;;;;;;;;7305132;19;140611;-78
2023/07/01 15:46:40;;;;;;;;;;;;;;;;;;7305081;19;140551;-83
2023/07/01 15:49:08;;;;;;;;;;;;;;;;;;7304516;19;140571;-75
2023/07/01 15:51:37;;;;;;;;;;;;;;;;;;7303513;19;141012;-76
2023/07/01 15:54:04;;;;;;;;;;;;;;;;;;7304319;19;140671;-75
2023/07/01 15:56:32;;;;;;;;;;;;;;;;;;7305255;19;140425;-74
2023/07/01 15:58:59;;;;;;;;;;;;;;;;;;7304642;19;141312;-75
2023/07/01 16:01:27;;;;;;;;;;;;;;;;;;7304641;19;140692;-75
2023/07/01 16:03:54;;;;;;;;;;;;;;;;;;7303124;19;141317;-75
2023/07/01 16:06:22;;;;;;;;;;;;;;;;;;7302742;19;140822;-75
2023/07/01 16:08:52;;;;;;;;;;;;;;;;;;7303681;19;151243;-74
2023/07/01 16:11:28;;;;;;;;;;;;;;;;;;7309618;19;140675;-74
2023/07/01 16:13:55;;;;;;;;;;;;;;;;;;7309788;19;143520;-76
2023/07/01 16:16:24;;;;;;;;;;;;;;;;;;7304737;19;140524;-74
2023/07/01 16:19:11;;;;;;;;;;;;;;;;;;7308489;19;150765;-75
2023/07/01 16:21:38;;;;;;;;;;;;;;;;;;7308835;19;143227;-72
2023/07/01 16:24:09;;;;;;;;;;;;;;;;;;7310158;19;142824;-74
2023/07/01 16:26:41;;;;;;;;;;;;;;;;;;7309090;19;140756;-74
2023/07/01 16:29:09;;;;;;;;;;;;;;;;;;7306415;19;141982;-71
2023/07/01 16:31:37;;;;;;;;;;;;;;;;;;7307510;19;140647;-71
2023/07/01 16:34:08;;;;;;;;;;;;;;;;;;7308660;19;141003;-71
2023/07/01 16:36:35;;;;;;;;;;;;;;;;;;7306832;19;151581;-71
2023/07/01 16:39:09;;;;;;;;;;;;;;;;;;7309293;19;144042;-71
2023/07/01 16:41:37;;;;;;;;;;;;;;;;;;7308577;19;144871;-71
2023/07/01 16:44:05;;;;;;;;;;;;;;;;;;7309628;19;140695;-72
2023/07/01 16:46:32;;;;;;;;;;;;;;;;;;7308238;19;141041;-71
2023/07/01 16:49:00;;;;;;;;;;;;;;;;;;7306807;19;141051;-72
2023/07/01 16:51:27;;;;;;;;;;;;;;;;;;7306597;19;143901;-71
2023/07/01 16:54:08;;;;;;;;;;;;;;;;;;7305551;19;140671;-71
2023/07/01 16:56:46;;;;;;;;;;;;;;;;;;7307371;19;151537;-71
2023/07/01 16:59:28;;;;;;;;;;;;;;;;;;7307998;19;149834;-71
2023/07/01 17:01:56;;;;;;;;;;;;;;;;;;7307243;19;140457;-71
2023/07/01 17:04:30;;;;;;;;;;;;;;;;;;7304177;19;140603;-73
2023/07/01 17:06:58;;;;;;;;;;;;;;;;;;7307313;19;148189;-70
2023/07/01 17:09:28;;;;;;;;;;;;;;;;;;7306891;19;148693;-71
2023/07/01 17:11:56;;;;;;;;;;;;;;;;;;7308258;19;140800;-71
2023/07/01 17:14:46;;;;;;;;;;;;;;;;;;7305971;19;140767;-71
2023/07/01 17:17:19;;;;;;;;;;;;;;;;;;7307205;19;151489;-72
2023/07/01 17:19:46;;;;;;;;;;;;;;;;;;7307256;19;140988;-72
2023/07/01 17:22:14;;;;;;;;;;;;;;;;;;7307828;19;140505;-73
2023/07/01 17:24:41;;;;;;;;;;;;;;;;;;7308534;19;140547;-74
2023/07/01 17:27:09;;;;;;;;;;;;;;;;;;7307282;19;150778;-77
2023/07/01 17:29:37;;;;;;;;;;;;;;;;;;7307735;19;140626;-75
2023/07/01 17:32:04;;;;;;;;;;;;;;;;;;7307329;19;140532;-75
2023/07/01 17:34:53;;;;;;;;;;;;;;;;;;7307634;19;140968;-73
2023/07/01 17:37:20;;;;;;;;;;;;;;;;;;7308488;19;143269;-75
2023/07/01 17:39:48;;;;;;;;;;;;;;;;;;7307585;19;140877;-75
2023/07/01 17:42:15;;;;;;;;;;;;;;;;;;7309014;19;140380;-74
2023/07/01 17:44:52;;;;;;;;;;;;;;;;;;7308739;19;140375;-75
2023/07/01 17:47:19;;;;;;;;;;;;;;;;;;7305715;19;144239;-76
2023/07/01 17:49:52;;;;;;;;;;;;;;;;;;7308577;19;140809;-76
2023/07/01 17:52:22;;;;;;;;;;;;;;;;;;7307147;19;140594;-76
2023/07/01 17:54:49;;;;;;;;;;;;;;;;;;7305876;19;143163;-76
2023/07/01 17:57:30;;;;;;;;;;;;;;;;;;7307402;19;141497;-77
2023/07/01 18:00:03;;;;;;;;;;;;;;;;;;7312944;19;140445;-78